Time;durP1;ratioP1;P1;durP2;ratioP2;P2;SDS_P1;SDS_P2;PMS_P1;PMS_P2;Temp;Humidity;BMP_temperature;BMP_pressure;BME280_temperature;BME280_humidity;BME280_pressure;Samples;Min_cycle;Max_cycle;Signal;HPM_P1;HPM_P2
2023/04/30 00:01:48;;;;;;;9.50;5.80;;;11.60;99.90;;;;;;5016325;28;20064;-84
2023/04/30 00:04:16;;;;;;;9.73;6.10;;;11.60;99.90;;;;;;4984553;28;20036;-85
2023/04/30 00:06:41;;;;;;;9.10;6.15;;;11.60;99.90;;;;;;5000033;28;20022;-88
2023/04/30 00:09:10;;;;;;;11.27;6.85;;;11.50;99.90;;;;;;5000702;28;20073;-84
2023/04/30 00:11:42;;;;;;;10.70;6.22;;;11.60;99.90;;;;;;4984251;28;20378;-84
2023/04/30 00:14:09;;;;;;;11.20;6.22;;;11.50;99.90;;;;;;5016680;28;20355;-84
2023/04/30 00:16:34;;;;;;;10.82;6.07;;;11.50;99.90;;;;;;5018371;28;20021;-85
2023/04/30 00:19:00;;;;;;;9.00;6.10;;;11.40;99.90;;;;;;5003135;28;20191;-84
2023/04/30 00:21:26;;;;;;;9.27;5.80;;;11.40;99.90;;;;;;5020206;28;20075;-85
2023/04/30 00:23:52;;;;;;;10.07;6.03;;;11.30;99.90;;;;;;5003603;28;20029;-85
2023/04/30 00:26:17;;;;;;;8.80;5.97;;;11.30;99.90;;;;;;4987395;28;20400;-86
2023/04/30 00:28:43;;;;;;;9.93;5.78;;;11.30;99.90;;;;;;5003749;28;20029;-85
2023/04/30 00:31:09;;;;;;;11.55;6.00;;;11.20;99.90;;;;;;5003711;28;20030;-85
2023/04/30 00:33:35;;;;;;;9.80;5.88;;;11.20;99.90;;;;;;5020382;28;20041;-85
2023/04/30 00:36:01;;;;;;;8.25;5.65;;;11.20;99.90;;;;;;4987936;28;20029;-85
2023/04/30 00:38:27;;;;;;;10.60;5.80;;;11.20;99.90;;;;;;4987682;28;20116;-85
2023/04/30 00:40:53;;;;;;;10.88;6.38;;;11.20;99.90;;;;;;5003919;28;20112;-85
2023/04/30 00:43:18;;;;;;;8.93;5.85;;;11.20;99.90;;;;;;4987657;28;20116;-84
2023/04/30 00:45:44;;;;;;;8.45;5.78;;;11.10;99.90;;;;;;4987560;28;20026;-84
2023/04/30 00:48:10;;;;;;;10.45;6.30;;;11.10;99.90;;;;;;5003551;28;20089;-85
2023/04/30 00:50:36;;;;;;;9.63;6.13;;;11.10;99.90;;;;;;5019606;28;20103;-85
2023/04/30 00:53:02;;;;;;;9.90;5.68;;;11.10;99.90;;;;;;5019919;28;20108;-85
2023/04/30 00:55:28;;;;;;;9.70;6.28;;;11.00;99.90;;;;;;5005021;28;20033;-86
2023/04/30 00:57:55;;;;;;;13.20;6.45;;;11.00;99.90;;;;;;5021432;28;20051;-85
2023/04/30 01:00:21;;;;;;;8.95;6.20;;;11.00;99.90;;;;;;5020071;28;20487;-85
2023/04/30 01:02:47;;;;;;;10.73;6.60;;;11.00;99.90;;;;;;5020086;28;20077;-85
2023/04/30 01:05:12;;;;;;;9.15;6.10;;;10.90;99.90;;;;;;4988140;28;20026;-85
2023/04/30 01:07:43;;;;;;;9.30;6.60;;;10.90;99.90;;;;;;5036570;28;20043;-85
2023/04/30 01:10:11;;;;;;;8.35;6.25;;;10.90;99.90;;;;;;5043000;28;20013;-87
2023/04/30 01:12:48;;;;;;;9.30;5.85;;;10.90;99.90;;;;;;5005003;28;20053;-85
2023/04/30 01:15:28;;;;;;;11.68;6.75;;;10.80;99.90;;;;;;5019753;28;20452;-85
2023/04/30 01:18:04;;;;;;;9.18;6.43;;;10.80;99.90;;;;;;5019094;28;20440;-85
2023/04/30 01:20:32;;;;;;;10.70;6.35;;;10.80;99.90;;;;;;5019213;28;20465;-85
2023/04/30 01:23:19;;;;;;;9.10;6.65;;;10.70;99.90;;;;;;5002672;28;20021;-85
2023/04/30 01:26:14;;;;;;;13.07;6.97;;;10.80;99.90;;;;;;5037018;28;20021;-84
2023/04/30 01:28:44;;;;;;;10.27;7.28;;;10.70;99.90;;;;;;5035859;28;20026;-85
2023/04/30 01:31:16;;;;;;;12.25;6.75;;;10.70;99.90;;;;;;5002716;28;20032;-85
2023/04/30 01:33:42;;;;;;;10.35;6.72;;;10.60;99.90;;;;;;5019182;28;20032;-85
2023/04/30 01:36:21;;;;;;;9.82;7.22;;;10.60;99.90;;;;;;5002587;28;20030;-85
2023/04/30 01:39:08;;;;;;;14.18;7.43;;;10.60;99.90;;;;;;5018986;28;20033;-85
2023/04/30 01:42:02;;;;;;;10.25;7.07;;;10.60;99.90;;;;;;5019194;28;20037;-85
2023/04/30 01:44:53;;;;;;;10.13;6.68;;;10.50;99.90;;;;;;5019141;28;20037;-85
2023/04/30 01:48:13;;;;;;;11.77;7.20;;;10.50;99.90;;;;;;5019110;28;20120;-84
2023/04/30 01:51:15;;;;;;;10.85;7.28;;;10.50;99.90;;;;;;4921652;29;20512;-84
2023/04/30 01:53:42;;;;;;;11.15;6.80;;;10.50;99.90;;;;;;5036659;28;20527;-85
2023/04/30 01:56:25;;;;;;;13.02;6.85;;;10.40;99.90;;;;;;5036200;28;20021;-86
2023/04/30 01:58:52;;;;;;;11.48;6.82;;;10.40;99.90;;;;;;5018845;28;20076;-85
2023/04/30 02:01:29;;;;;;;10.15;6.80;;;10.40;99.90;;;;;;5018004;28;20030;-85
2023/04/30 02:03:55;;;;;;;10.15;7.13;;;10.40;99.90;;;;;;5019066;28;20029;-90
2023/04/30 02:06:21;;;;;;;10.43;7.30;;;10.30;99.90;;;;;;5023330;28;20097;-85
2023/04/30 02:08:47;;;;;;;11.32;6.60;;;10.40;99.90;;;;;;5040025;28;20018;-85
2023/04/30 02:11:13;;;;;;;10.07;6.80;;;10.30;99.90;;;;;;5025266;28;20014;-86
2023/04/30 02:13:38;;;;;;;11.43;6.80;;;10.30;99.90;;;;;;5012448;28;20037;-85
2023/04/30 02:16:04;;;;;;;9.90;6.60;;;10.30;99.90;;;;;;5018200;28;20473;-85
2023/04/30 02:18:30;;;;;;;11.35;7.03;;;10.30;99.90;;;;;;4985418;28;20025;-85
2023/04/30 02:20:56;;;;;;;11.23;6.85;;;10.20;99.90;;;;;;4985369;28;20034;-85
2023/04/30 02:23:21;;;;;;;12.98;7.25;;;10.20;99.90;;;;;;4985185;28;20064;-85
2023/04/30 02:25:47;;;;;;;10.68;6.70;;;10.20;99.90;;;;;;5017834;28;20503;-85
2023/04/30 02:28:13;;;;;;;11.68;7.03;;;10.20;99.90;;;;;;5018071;28;20025;-85
2023/04/30 02:30:38;;;;;;;8.90;6.70;;;10.10;99.90;;;;;;5018381;28;20109;-85
2023/04/30 02:33:04;;;;;;;10.27;6.43;;;10.10;99.90;;;;;;5017861;28;20035;-85
2023/04/30 02:35:30;;;;;;;8.95;6.25;;;10.10;99.90;;;;;;5035511;28;20022;-85
2023/04/30 02:37:55;;;;;;;8.95;6.65;;;10.10;99.90;;;;;;5001471;28;20053;-85
2023/04/30 02:40:21;;;;;;;8.15;6.38;;;10.10;99.90;;;;;;5034944;28;20033;-85
2023/04/30 02:42:47;;;;;;;8.32;6.30;;;10.00;99.90;;;;;;5018075;28;20049;-85
2023/04/30 02:45:13;;;;;;;11.38;7.03;;;10.00;99.90;;;;;;4985292;28;20029;-85
2023/04/30 02:47:38;;;;;;;8.77;6.35;;;10.00;99.90;;;;;;5017783;28;20030;-85
2023/04/30 02:50:04;;;;;;;10.32;6.65;;;10.00;99.90;;;;;;5018058;28;20026;-85
2023/04/30 02:52:31;;;;;;;10.02;6.40;;;9.90;99.90;;;;;;5001255;28;20120;-85
2023/04/30 02:54:56;;;;;;;10.05;6.20;;;10.00;99.90;;;;;;5001140;28;20466;-85
2023/04/30 02:57:22;;;;;;;9.20;6.53;;;9.90;99.90;;;;;;5017651;28;20034;-85
2023/04/30 02:59:48;;;;;;;9.75;6.47;;;9.90;99.90;;;;;;5001297;28;20026;-85
2023/04/30 03:02:13;;;;;;;9.05;6.25;;;9.90;99.90;;;;;;5017450;28;20485;-85
2023/04/30 03:04:39;;;;;;;12.38;7.05;;;9.90;99.90;;;;;;5001240;28;20393;-86
2023/04/30 03:07:05;;;;;;;10.90;6.28;;;9.80;99.90;;;;;;5001329;28;20030;-85
2023/04/30 03:09:31;;;;;;;12.23;7.28;;;9.80;99.90;;;;;;5018398;28;20588;-85
2023/04/30 03:11:57;;;;;;;11.55;6.35;;;9.80;99.90;;;;;;5027471;28;20037;-85
2023/04/30 03:14:22;;;;;;;9.60;6.57;;;9.80;99.90;;;;;;5036526;28;20017;-86
2023/04/30 03:16:48;;;;;;;11.65;6.82;;;9.80;99.90;;;;;;5034662;28;20029;-85
2023/04/30 03:19:14;;;;;;;9.95;6.80;;;9.70;99.90;;;;;;4988512;28;20026;-85
2023/04/30 03:21:40;;;;;;;10.63;6.78;;;9.70;99.90;;;;;;5018640;28;20037;-85
2023/04/30 03:24:05;;;;;;;11.70;6.90;;;9.70;99.90;;;;;;5001924;28;20052;-85
2023/04/30 03:26:31;;;;;;;11.45;6.55;;;9.70;99.90;;;;;;5035140;28;20466;-85
2023/04/30 03:28:57;;;;;;;12.57;6.80;;;9.70;99.90;;;;;;4984907;28;20025;-85
2023/04/30 03:31:23;;;;;;;11.55;7.15;;;9.70;99.90;;;;;;5016974;28;20041;-85
2023/04/30 03:33:48;;;;;;;11.25;6.90;;;9.70;99.90;;;;;;5017551;28;20160;-85
2023/04/30 03:36:14;;;;;;;12.55;7.75;;;9.60;99.90;;;;;;5016678;28;20386;-85
2023/04/30 03:38:41;;;;;;;9.93;6.78;;;9.60;99.90;;;;;;5001038;28;20116;-85
2023/04/30 03:41:07;;;;;;;10.32;6.88;;;9.60;99.90;;;;;;5000680;28;20033;-86
2023/04/30 03:43:33;;;;;;;14.23;7.40;;;9.60;99.90;;;;;;5017224;28;20087;-85
2023/04/30 03:45:58;;;;;;;12.15;7.55;;;9.60;99.90;;;;;;5017009;28;20043;-86
2023/04/30 03:48:24;;;;;;;14.65;8.48;;;9.60;99.90;;;;;;4984219;28;20044;-86
2023/04/30 03:50:50;;;;;;;15.80;8.10;;;9.60;99.90;;;;;;5018571;28;20029;-85
2023/04/30 03:53:16;;;;;;;13.77;8.48;;;9.50;99.90;;;;;;5020555;28;20080;-86
2023/04/30 03:55:42;;;;;;;14.98;8.43;;;9.50;99.90;;;;;;5020747;28;20034;-85
2023/04/30 03:58:07;;;;;;;13.30;8.80;;;9.50;99.90;;;;;;4988542;28;20025;-85
2023/04/30 04:00:33;;;;;;;12.02;7.97;;;9.50;99.90;;;;;;5038326;28;20065;-85
2023/04/30 04:02:59;;;;;;;12.43;8.18;;;9.50;99.90;;;;;;5020134;28;20488;-84
2023/04/30 04:05:25;;;;;;;17.88;9.07;;;9.50;99.90;;;;;;5004527;28;20038;-85
2023/04/30 04:07:51;;;;;;;12.80;8.00;;;9.50;99.90;;;;;;5004815;28;20029;-85
2023/04/30 04:10:16;;;;;;;13.25;8.48;;;9.50;99.90;;;;;;4988185;28;20048;-85
2023/04/30 04:12:42;;;;;;;15.70;8.32;;;9.40;99.90;;;;;;4988169;28;20025;-86
2023/04/30 04:15:08;;;;;;;14.48;9.38;;;9.40;99.90;;;;;;5021234;28;20488;-85
2023/04/30 04:17:34;;;;;;;13.70;9.07;;;9.40;99.90;;;;;;4988091;28;20473;-85
2023/04/30 04:20:00;;;;;;;12.52;8.70;;;9.40;99.90;;;;;;5020595;28;20026;-85
2023/04/30 04:22:26;;;;;;;14.65;8.90;;;9.40;99.90;;;;;;5020398;28;20038;-86
2023/04/30 04:24:52;;;;;;;13.13;9.23;;;9.40;99.90;;;;;;5021049;28;20040;-85
2023/04/30 04:27:19;;;;;;;13.75;7.97;;;9.30;99.90;;;;;;5004156;28;20385;-86
2023/04/30 04:29:45;;;;;;;13.48;8.93;;;9.30;99.90;;;;;;4988306;28;20018;-85
2023/04/30 04:32:10;;;;;;;12.57;8.88;;;9.30;99.90;;;;;;5021144;28;20034;-85
2023/04/30 04:34:37;;;;;;;13.88;8.45;;;9.30;99.90;;;;;;4988583;28;20026;-85
2023/04/30 04:37:03;;;;;;;12.05;8.52;;;9.30;99.90;;;;;;5021369;28;20108;-85
2023/04/30 04:39:29;;;;;;;14.98;9.05;;;9.30;99.90;;;;;;5004263;28;20042;-86
2023/04/30 04:41:54;;;;;;;14.85;8.40;;;9.30;99.90;;;;;;4983216;28;20033;-85
2023/04/30 04:44:21;;;;;;;16.85;8.88;;;9.30;99.90;;;;;;5023133;28;20029;-88
2023/04/30 04:46:48;;;;;;;12.77;8.80;;;9.30;99.90;;;;;;4996525;28;20034;-85
2023/04/30 04:49:14;;;;;;;12.55;8.35;;;9.20;99.90;;;;;;5000040;28;20045;-91
2023/04/30 04:51:40;;;;;;;12.35;8.18;;;9.20;99.90;;;;;;4968156;28;20493;-85
2023/04/30 04:54:05;;;;;;;15.10;9.07;;;9.20;99.90;;;;;;5000267;28;20045;-85
2023/04/30 04:56:31;;;;;;;13.55;8.38;;;9.20;99.90;;;;;;4999951;28;20470;-85
2023/04/30 04:58:57;;;;;;;15.85;9.27;;;9.20;99.90;;;;;;4984314;28;20065;-85
2023/04/30 05:01:23;;;;;;;14.18;9.27;;;9.20;99.90;;;;;;5000873;28;20034;-86
2023/04/30 05:03:49;;;;;;;14.40;9.13;;;9.20;99.90;;;;;;4982857;28;20146;-85
2023/04/30 05:06:15;;;;;;;12.52;8.68;;;9.20;99.90;;;;;;4999423;28;20049;-85
2023/04/30 05:08:41;;;;;;;13.98;9.32;;;9.20;99.90;;;;;;4999762;28;20034;-85
2023/04/30 05:11:07;;;;;;;13.85;9.90;;;9.20;99.90;;;;;;5000131;28;20046;-85
2023/04/30 05:13:32;;;;;;;16.50;9.00;;;9.10;99.90;;;;;;5015984;28;20030;-86
2023/04/30 05:15:58;;;;;;;12.82;9.38;;;9.10;99.90;;;;;;4999584;28;20037;-86
2023/04/30 05:18:23;;;;;;;13.43;9.52;;;9.20;99.90;;;;;;4999816;28;20529;-86
2023/04/30 05:20:49;;;;;;;13.82;8.82;;;9.20;99.90;;;;;;4983756;28;20060;-85
2023/04/30 05:23:15;;;;;;;13.45;8.82;;;9.20;99.90;;;;;;4999605;28;20034;-86
2023/04/30 05:25:41;;;;;;;15.15;9.93;;;9.20;99.90;;;;;;4999200;28;20030;-86
2023/04/30 05:28:09;;;;;;;15.95;9.27;;;9.20;99.90;;;;;;4983066;28;20025;-86
2023/04/30 05:30:35;;;;;;;14.70;9.73;;;9.20;99.90;;;;;;5016173;28;20119;-85
2023/04/30 05:33:01;;;;;;;15.18;10.00;;;9.20;99.90;;;;;;4982866;28;20030;-87
2023/04/30 05:35:27;;;;;;;13.48;9.32;;;9.20;99.90;;;;;;4999181;28;20061;-86
2023/04/30 05:37:52;;;;;;;14.15;9.70;;;9.20;99.90;;;;;;4983286;28;20042;-86
2023/04/30 05:40:18;;;;;;;18.15;11.50;;;9.20;99.90;;;;;;4999450;28;20465;-86
2023/04/30 05:42:44;;;;;;;13.35;9.70;;;9.20;99.90;;;;;;4999288;28;20038;-86
2023/04/30 05:45:11;;;;;;;13.35;9.55;;;9.30;99.90;;;;;;4983283;28;20025;-86
2023/04/30 05:47:37;;;;;;;13.27;9.45;;;9.30;99.90;;;;;;4998944;28;20129;-86
2023/04/30 05:50:03;;;;;;;13.32;9.52;;;9.30;99.90;;;;;;4999068;28;20026;-85
2023/04/30 05:52:28;;;;;;;15.27;9.82;;;9.30;99.90;;;;;;4998701;28;20034;-85
2023/04/30 05:54:54;;;;;;;13.07;8.55;;;9.30;99.90;;;;;;4998994;28;20113;-85
2023/04/30 05:57:20;;;;;;;12.48;8.55;;;9.40;99.90;;;;;;4999150;28;20432;-85
2023/04/30 05:59:46;;;;;;;15.68;10.40;;;9.40;99.90;;;;;;4999093;28;20425;-87
2023/04/30 06:02:11;;;;;;;14.38;9.27;;;9.40;99.90;;;;;;4998632;28;20124;-85
2023/04/30 06:04:37;;;;;;;14.20;9.40;;;9.40;99.90;;;;;;4998520;28;20117;-85
2023/04/30 06:07:03;;;;;;;13.95;9.45;;;9.50;99.90;;;;;;5001790;28;20029;-85
2023/04/30 06:09:28;;;;;;;15.18;10.20;;;9.50;99.90;;;;;;5001944;28;20026;-86
2023/04/30 06:11:54;;;;;;;15.32;9.50;;;9.50;99.90;;;;;;4985915;28;20120;-85
2023/04/30 06:14:21;;;;;;;11.98;9.18;;;9.50;99.90;;;;;;5035761;28;20026;-85
2023/04/30 06:16:48;;;;;;;13.25;8.48;;;9.60;99.90;;;;;;5002052;28;20030;-86
2023/04/30 06:19:14;;;;;;;13.90;8.95;;;9.60;99.90;;;;;;4986202;28;20084;-85
2023/04/30 06:21:42;;;;;;;14.40;8.65;;;9.60;99.90;;;;;;5036212;28;20465;-85
2023/04/30 06:24:08;;;;;;;13.50;8.77;;;9.70;99.90;;;;;;4987082;28;20041;-85
2023/04/30 06:26:34;;;;;;;14.00;8.98;;;9.70;99.90;;;;;;5002202;28;20032;-85
2023/04/30 06:29:00;;;;;;;11.55;8.35;;;9.70;99.90;;;;;;5002652;28;20579;-85
2023/04/30 06:31:26;;;;;;;12.70;8.80;;;9.70;99.90;;;;;;5036150;28;20040;-89
2023/04/30 06:33:51;;;;;;;13.70;9.27;;;9.80;99.90;;;;;;5018302;28;20477;-86
2023/04/30 06:36:18;;;;;;;11.88;8.48;;;9.80;99.90;;;;;;5003808;28;20032;-85
2023/04/30 06:38:45;;;;;;;13.45;8.70;;;9.90;99.90;;;;;;4986804;28;20022;-85
2023/04/30 06:41:15;;;;;;;13.18;8.25;;;9.90;99.90;;;;;;5029537;28;20034;-85
2023/04/30 06:43:44;;;;;;;12.00;8.18;;;10.00;99.90;;;;;;5001463;28;20037;-88
2023/04/30 06:46:13;;;;;;;12.40;8.27;;;10.00;99.90;;;;;;4997463;28;20048;-85
2023/04/30 06:48:39;;;;;;;13.00;9.05;;;10.10;99.90;;;;;;4969545;28;20031;-85
2023/04/30 06:51:05;;;;;;;13.57;8.32;;;10.20;99.90;;;;;;4983907;28;20113;-84
2023/04/30 06:53:30;;;;;;;13.27;8.55;;;10.30;99.90;;;;;;4999048;28;20117;-86
2023/04/30 06:55:59;;;;;;;15.73;8.38;;;10.30;99.90;;;;;;4982630;28;20122;-85
2023/04/30 06:58:28;;;;;;;11.82;8.48;;;10.40;99.90;;;;;;4982336;28;20112;-85
2023/04/30 07:00:53;;;;;;;10.82;7.80;;;10.40;99.90;;;;;;4998486;28;20030;-85
2023/04/30 07:03:27;;;;;;;14.27;8.32;;;10.50;99.90;;;;;;4998237;28;20498;-85
2023/04/30 07:05:52;;;;;;;13.10;8.05;;;10.60;99.90;;;;;;4999091;28;20030;-86
2023/04/30 07:08:18;;;;;;;11.60;7.13;;;10.60;99.90;;;;;;4999365;28;20117;-85
2023/04/30 07:10:44;;;;;;;15.85;8.85;;;10.70;99.90;;;;;;4986761;28;20041;-85
2023/04/30 07:13:10;;;;;;;21.00;8.57;;;10.80;99.90;;;;;;5031217;28;20030;-86
2023/04/30 07:15:39;;;;;;;10.30;7.80;;;10.90;99.90;;;;;;5018937;28;20412;-86
2023/04/30 07:18:04;;;;;;;10.63;8.00;;;11.00;99.90;;;;;;4991672;28;20061;-88
2023/04/30 07:20:30;;;;;;;11.00;7.38;;;11.10;99.90;;;;;;5000493;28;20465;-86
2023/04/30 07:22:56;;;;;;;10.32;7.72;;;11.10;99.90;;;;;;4999777;28;20092;-87
2023/04/30 07:25:21;;;;;;;11.82;7.72;;;11.20;99.90;;;;;;4998526;28;20052;-88
2023/04/30 07:27:47;;;;;;;11.07;7.72;;;11.30;99.90;;;;;;4995951;28;20514;-86
2023/04/30 07:30:13;;;;;;;9.82;7.30;;;11.40;99.90;;;;;;5014985;28;20117;-87
2023/04/30 07:32:40;;;;;;;11.10;7.78;;;11.40;99.90;;;;;;4983040;28;20469;-87
2023/04/30 07:35:06;;;;;;;10.93;6.97;;;11.50;99.90;;;;;;4996476;28;20056;-86
2023/04/30 07:37:34;;;;;;;10.98;7.70;;;11.60;99.90;;;;;;5033584;28;20057;-87
2023/04/30 07:39:59;;;;;;;10.95;7.90;;;11.70;99.90;;;;;;5017603;28;20085;-87
2023/04/30 07:42:25;;;;;;;12.15;7.88;;;11.70;99.90;;;;;;5000602;28;20068;-87
2023/04/30 07:44:51;;;;;;;12.05;7.85;;;11.80;99.90;;;;;;5015452;28;20021;-88
2023/04/30 07:47:18;;;;;;;13.13;7.45;;;11.90;99.90;;;;;;5016646;28;20018;-87
2023/04/30 07:49:47;;;;;;;11.18;7.38;;;12.00;99.90;;;;;;5016222;28;20068;-87
2023/04/30 07:52:13;;;;;;;11.65;7.32;;;12.10;99.90;;;;;;5000340;28;20057;-87
2023/04/30 07:54:41;;;;;;;10.88;7.00;;;12.20;99.90;;;;;;5016493;28;20559;-87
2023/04/30 07:57:07;;;;;;;11.57;6.93;;;12.30;99.90;;;;;;5000575;28;20041;-86
2023/04/30 07:59:33;;;;;;;9.85;7.22;;;12.40;99.90;;;;;;5000154;28;20489;-86
2023/04/30 08:01:58;;;;;;;9.48;6.70;;;12.50;99.90;;;;;;4984264;28;20037;-86
2023/04/30 08:04:24;;;;;;;12.05;7.00;;;12.50;99.90;;;;;;5000222;28;20123;-86
2023/04/30 08:06:50;;;;;;;10.88;7.00;;;12.60;99.90;;;;;;5016594;28;20021;-87
2023/04/30 08:09:16;;;;;;;13.45;7.25;;;12.70;99.90;;;;;;5000201;28;20109;-86
2023/04/30 08:11:42;;;;;;;11.93;7.07;;;12.80;99.90;;;;;;5000088;28;20385;-89
2023/04/30 08:14:07;;;;;;;9.20;6.70;;;12.90;99.90;;;;;;5000228;28;20041;-85
2023/04/30 08:16:33;;;;;;;10.75;7.22;;;13.00;99.90;;;;;;4999573;28;20044;-85
2023/04/30 08:18:59;;;;;;;12.15;7.30;;;13.10;99.90;;;;;;5000181;28;20021;-86
2023/04/30 08:21:26;;;;;;;11.73;6.75;;;13.20;99.90;;;;;;4999204;28;20069;-85
2023/04/30 08:23:53;;;;;;;1555.47;768.47;;;13.30;99.90;;;;;;5015794;28;20036;-88
2023/04/30 08:26:20;;;;;;;11.35;6.38;;;13.30;99.90;;;;;;4998212;28;20120;-87
2023/04/30 08:28:45;;;;;;;11.18;6.70;;;13.40;99.90;;;;;;5032146;28;20021;-86
2023/04/30 08:31:12;;;;;;;10.35;6.60;;;13.50;99.90;;;;;;5016212;28;20043;-83
2023/04/30 08:33:37;;;;;;;8.70;6.28;;;13.60;99.90;;;;;;4999501;28;20052;-86
2023/04/30 08:36:03;;;;;;;10.38;5.95;;;13.60;99.90;;;;;;5016762;28;20418;-86
2023/04/30 08:38:29;;;;;;;9.30;6.75;;;13.70;99.90;;;;;;5004044;28;20029;-87
2023/04/30 08:41:13;;;;;;;9.77;6.47;;;13.80;99.90;;;;;;5003620;28;20038;-87
2023/04/30 08:43:40;;;;;;;10.05;5.95;;;13.80;99.90;;;;;;5037470;28;20021;-87
2023/04/30 08:46:06;;;;;;;8.55;5.45;;;13.90;99.90;;;;;;5020041;28;20017;-85
2023/04/30 08:48:32;;;;;;;10.52;6.30;;;13.90;99.90;;;;;;5037158;28;20060;-86
2023/04/30 08:51:04;;;;;;;7.85;5.55;;;14.00;99.90;;;;;;5037118;28;20029;-87
2023/04/30 08:53:33;;;;;;;8.75;6.20;;;14.10;99.90;;;;;;4987387;28;20021;-87
2023/04/30 08:55:58;;;;;;;11.80;6.18;;;14.10;99.90;;;;;;5003461;28;20028;-87
2023/04/30 08:58:27;;;;;;;10.68;5.90;;;14.20;99.90;;;;;;4988125;28;20121;-88
2023/04/30 09:00:53;;;;;;;8.55;5.95;;;14.30;99.90;;;;;;5036284;28;20065;-85
2023/04/30 09:03:20;;;;;;;9.40;5.68;;;14.40;99.90;;;;;;5019091;28;20050;-86
2023/04/30 09:05:46;;;;;;;9.40;6.32;;;14.50;99.90;;;;;;4987015;28;20056;-87
2023/04/30 09:08:17;;;;;;;8.50;5.97;;;14.50;99.90;;;;;;5019855;28;20029;-87
2023/04/30 09:10:45;;;;;;;10.60;5.90;;;14.60;99.90;;;;;;5020169;28;20021;-87
2023/04/30 09:13:12;;;;;;;9.52;5.85;;;14.70;99.90;;;;;;5036993;28;20120;-86
2023/04/30 09:15:43;;;;;;;10.38;6.45;;;14.80;99.90;;;;;;5003573;28;20037;-87
2023/04/30 09:18:16;;;;;;;7.57;5.32;;;14.80;99.90;;;;;;5000786;28;20034;-87
2023/04/30 09:21:00;;;;;;;8.90;5.22;;;14.90;99.90;;;;;;4984003;28;20030;-86
2023/04/30 09:23:27;;;;;;;9.57;5.25;;;15.00;99.90;;;;;;5017917;28;20070;-88
2023/04/30 09:25:53;;;;;;;8.52;4.72;;;15.00;99.90;;;;;;5000114;28;20014;-87
2023/04/30 09:28:24;;;;;;;9.30;6.15;;;15.10;99.90;;;;;;5000428;28;20029;-87
2023/04/30 09:30:49;;;;;;;;;;;15.20;99.90;;;;;;4985250;28;20038;-87
2023/04/30 09:33:15;;;;;;;8.63;5.30;;;15.30;99.90;;;;;;5018570;28;19963;-86
2023/04/30 09:35:41;;;;;;;7.97;4.95;;;15.40;99.90;;;;;;5002874;28;20030;-87
2023/04/30 09:38:23;;;;;;;12.77;5.22;;;15.40;99.90;;;;;;5008636;28;20026;-86
2023/04/30 09:40:49;;;;;;;7.35;4.95;;;15.50;99.90;;;;;;5012765;28;20042;-88
2023/04/30 09:43:15;;;;;;;9.77;5.05;;;15.60;99.90;;;;;;5013261;28;20469;-87
2023/04/30 09:45:48;;;;;;;10.90;5.47;;;15.60;99.90;;;;;;4993293;28;20041;-87
2023/04/30 09:48:15;;;;;;;6.82;4.82;;;15.70;99.90;;;;;;5020121;28;20033;-87
2023/04/30 09:50:41;;;;;;;10.73;5.55;;;15.80;99.90;;;;;;4984691;28;20025;-86
2023/04/30 09:53:09;;;;;;;7.18;4.22;;;15.80;99.90;;;;;;4984483;28;20026;-86
2023/04/30 09:55:36;;;;;;;5.95;4.10;;;15.90;99.90;;;;;;4986577;28;20033;-90
2023/04/30 09:58:09;;;;;;;6.57;4.57;;;16.00;99.90;;;;;;5003859;28;20018;-87
2023/04/30 10:00:36;;;;;;;7.55;4.30;;;16.00;99.90;;;;;;5007062;28;20057;-87
2023/04/30 10:03:08;;;;;;;6.82;4.72;;;16.10;99.90;;;;;;4973112;28;20149;-88
2023/04/30 10:05:38;;;;;;;7.25;4.43;;;16.20;99.90;;;;;;5004314;28;20396;-87
2023/04/30 10:08:12;;;;;;;7.57;5.22;;;16.20;99.90;;;;;;5004766;28;20037;-88
2023/04/30 10:10:41;;;;;;;6.75;4.53;;;16.30;99.90;;;;;;5004940;28;20054;-85
2023/04/30 10:13:10;;;;;;;6.10;4.50;;;16.40;99.90;;;;;;5002186;28;20049;-84
2023/04/30 10:15:42;;;;;;;5.85;4.50;;;16.50;99.90;;;;;;4999674;28;20033;-84
2023/04/30 10:18:33;;;;;;;7.10;4.35;;;16.60;99.90;;;;;;4998707;28;20033;-86
2023/04/30 10:21:00;;;;;;;;;;;16.70;99.90;;;;;;4987078;28;20042;-87
2023/04/30 10:23:28;;;;;;;7.43;4.22;;;16.80;99.90;;;;;;5016183;28;19905;-86
2023/04/30 10:25:56;;;;;;;7.30;4.28;;;16.80;99.90;;;;;;4983012;28;20029;-87
2023/04/30 10:28:23;;;;;;;5.82;3.88;;;16.90;99.90;;;;;;4999784;28;20022;-85
2023/04/30 10:30:50;;;;;;;6.85;4.40;;;17.00;99.90;;;;;;4982247;28;20030;-85
2023/04/30 10:33:27;;;;;;;6.25;4.40;;;17.00;99.90;;;;;;4966290;28;20112;-90
2023/04/30 10:36:03;;;;;;;6.47;4.10;;;17.00;99.90;;;;;;4999376;28;20145;-91
2023/04/30 10:38:43;;;;;;;5.78;4.38;;;17.10;99.90;;;;;;4999365;28;20080;-88
2023/04/30 10:41:19;;;;;;;6.25;3.90;;;17.20;99.90;;;;;;4984621;28;20038;-91
2023/04/30 10:44:22;;;;;;;;;;;;;;;;;;;;;
2023/04/30 10:47:08;;;;;;;8.68;4.75;;;17.40;99.90;;;;;;5000998;28;20068;-91
2023/04/30 10:49:36;;;;;;;5.95;3.60;;;17.40;99.90;;;;;;5017353;28;20080;-91
2023/04/30 10:52:10;;;;;;;6.38;3.63;;;17.50;99.90;;;;;;5001373;28;20099;-89
2023/04/30 10:54:39;;;;;;;5.40;3.65;;;17.50;99.90;;;;;;5018080;28;20021;-85
2023/04/30 10:57:19;;;;;;;5.07;3.40;;;17.60;99.90;;;;;;5016908;28;20057;-89
2023/04/30 11:00:09;;;;;;;5.57;3.63;;;17.60;99.90;;;;;;5017502;28;20045;-88
2023/04/30 11:02:46;;;;;;;5.32;3.30;;;17.70;99.90;;;;;;5034802;28;20061;-89
2023/04/30 11:05:16;;;;;;;6.20;4.28;;;17.80;99.90;;;;;;5001810;28;20033;-86
2023/04/30 11:08:01;;;;;;;7.18;3.70;;;17.90;99.90;;;;;;5017338;28;20025;-87
2023/04/30 11:10:33;;;;;;;5.97;3.40;;;18.00;99.90;;;;;;5017511;28;20030;-88
2023/04/30 11:13:41;;;;;;;6.55;3.30;;;18.00;99.90;;;;;;5017119;28;20030;-89
2023/04/30 11:16:09;;;;;;;5.35;3.05;;;18.10;99.90;;;;;;5015695;28;20026;-89
2023/04/30 11:18:47;;;;;;;6.05;3.53;;;18.20;99.90;;;;;;5001935;28;20033;-88
2023/04/30 11:21:27;;;;;;;8.35;3.78;;;18.20;99.90;;;;;;5034026;28;20124;-90
2023/04/30 11:24:03;;;;;;;5.15;3.55;;;18.30;99.90;;;;;;5017502;28;20113;-87
2023/04/30 11:26:28;;;;;;;5.55;3.50;;;18.40;99.90;;;;;;5001049;28;20135;-87
2023/04/30 11:28:57;;;;;;;6.60;3.50;;;18.40;99.90;;;;;;5018058;28;20461;-89
2023/04/30 11:31:33;;;;;;;6.28;4.05;;;18.60;99.90;;;;;;5017609;28;20021;-87
2023/04/30 11:34:03;;;;;;;5.68;3.33;;;18.60;99.90;;;;;;5017321;28;20028;-89
2023/04/30 11:36:45;;;;;;;;;;;;;;;;;;;;;
2023/04/30 11:39:17;;;;;;;5.20;3.55;;;18.80;99.90;;;;;;5034500;28;20028;-88
2023/04/30 11:42:06;;;;;;;6.35;3.80;;;18.80;99.90;;;;;;5016749;28;20030;-87
2023/04/30 11:45:01;;;;;;;6.70;4.20;;;18.90;99.90;;;;;;5018574;28;20095;-88
2023/04/30 11:47:46;;;;;;;7.43;3.60;;;19.00;99.90;;;;;;5015520;28;20036;-88
2023/04/30 11:50:20;;;;;;;7.57;3.70;;;19.00;99.80;;;;;;5015584;28;20489;-87
2023/04/30 11:52:51;;;;;;;5.18;3.25;;;19.10;99.40;;;;;;5016333;28;20034;-87
2023/04/30 11:55:22;;;;;;;5.57;3.50;;;19.10;99.10;;;;;;5015833;28;20025;-86
2023/04/30 11:57:55;;;;;;;5.75;3.50;;;19.10;99.10;;;;;;5015685;28;20458;-87
2023/04/30 12:00:28;;;;;;;7.25;3.80;;;19.20;98.80;;;;;;5016027;28;20129;-87
2023/04/30 12:02:58;;;;;;;7.43;3.50;;;19.20;98.40;;;;;;5016308;28;20054;-88
2023/04/30 12:05:25;;;;;;;6.22;3.17;;;19.30;98.30;;;;;;5016747;28;20457;-87
2023/04/30 12:08:03;;;;;;;5.53;3.38;;;19.30;98.00;;;;;;5016730;28;20021;-89
2023/04/30 12:10:31;;;;;;;8.63;3.38;;;19.40;97.90;;;;;;5017944;28;20079;-88
2023/04/30 12:13:08;;;;;;;6.60;3.03;;;19.40;97.80;;;;;;5020480;28;20044;-88
2023/04/30 12:15:58;;;;;;;4.60;2.78;;;19.50;97.80;;;;;;5008869;28;20070;-89
2023/04/30 12:18:27;;;;;;;4.85;2.88;;;19.60;97.50;;;;;;5060735;28;20009;-89
2023/04/30 12:21:05;;;;;;;;;;;;;;;;;;;;;
2023/04/30 12:23:35;;;;;;;5.45;2.85;;;19.70;96.30;;;;;;5028738;28;20116;-87
2023/04/30 12:26:04;;;;;;;5.10;2.90;;;19.80;95.80;;;;;;5005254;28;20029;-87
2023/04/30 12:28:30;;;;;;;5.75;2.80;;;19.80;95.10;;;;;;5005356;28;20493;-87
2023/04/30 12:30:56;;;;;;;5.70;2.55;;;19.80;94.90;;;;;;5020331;28;20129;-87
2023/04/30 12:33:28;;;;;;;4.25;2.42;;;19.80;94.80;;;;;;5019402;28;20453;-87
2023/04/30 12:36:01;;;;;;;5.80;2.50;;;19.90;94.90;;;;;;5038143;28;20104;-89
2023/04/30 12:38:34;;;;;;;4.25;2.65;;;20.00;95.20;;;;;;5020765;28;20025;-89
2023/04/30 12:41:12;;;;;;;6.10;2.90;;;20.00;94.80;;;;;;5021384;28;20045;-88
2023/04/30 12:43:41;;;;;;;4.38;2.90;;;20.10;94.40;;;;;;5026030;28;20481;-85
2023/04/30 12:46:24;;;;;;;3.75;2.22;;;20.10;94.00;;;;;;5038569;28;20369;-88
2023/04/30 12:48:55;;;;;;;5.38;2.63;;;20.20;93.70;;;;;;5040926;28;20547;-87
2023/04/30 12:51:39;;;;;;;;;;;;;;;;;;;;;
2023/04/30 12:54:16;;;;;;;2.95;1.90;;;20.30;93.30;;;;;;5057449;28;19904;-88
2023/04/30 12:57:05;;;;;;;3.80;2.35;;;20.30;93.10;;;;;;5039424;28;20024;-88
2023/04/30 12:59:54;;;;;;;7.05;2.90;;;20.40;92.90;;;;;;5039720;28;20435;-88